Time;durP1;ratioP1;P1;durP2;ratioP2;P2;SDS_P1;SDS_P2;PMS_P1;PMS_P2;Temp;Humidity;BMP_temperature;BMP_pressure;BME280_temperature;BME280_humidity;BME280_pressure;Samples;Min_cycle;Max_cycle;Signal;HPM_P1;HPM_P2
2022/11/22 00:00:58;;;;;;;25.50;17.37;;;;;;;;;;4975060;28;20238;-85
2022/11/22 00:03:26;;;;;;;27.60;17.73;;;;;;;;;;4967852;28;20596;-87
2022/11/22 00:05:51;;;;;;;28.63;18.60;;;;;;;;;;4946086;28;20756;-85
2022/11/22 00:08:20;;;;;;;27.33;18.47;;;;;;;;;;4966062;28;20224;-88
2022/11/22 00:10:49;;;;;;;23.87;17.37;;;;;;;;;;4976803;28;20244;-85
2022/11/22 00:13:17;;;;;;;25.60;18.00;;;;;;;;;;4946203;28;20347;-86
2022/11/22 00:15:43;;;;;;;26.30;17.73;;;;;;;;;;4989044;28;20227;-87
2022/11/22 00:18:08;;;;;;;24.63;17.33;;;;;;;;;;4966236;28;20219;-84
2022/11/22 00:20:34;;;;;;;27.63;18.83;;;;;;;;;;4971716;28;20598;-86
2022/11/22 00:22:59;;;;;;;28.23;17.73;;;;;;;;;;4964438;28;20238;-86
2022/11/22 00:25:25;;;;;;;25.60;18.20;;;;;;;;;;4954897;28;20590;-84
2022/11/22 00:27:51;;;;;;;26.93;18.60;;;;;;;;;;4944394;28;20858;-85
2022/11/22 00:30:17;;;;;;;28.27;19.33;;;;;;;;;;4961557;28;20311;-85
2022/11/22 00:32:47;;;;;;;24.67;18.17;;;;;;;;;;4978840;28;20232;-85
2022/11/22 00:35:17;;;;;;;27.30;18.43;;;;;;;;;;4972142;28;20222;-84
2022/11/22 00:37:43;;;;;;;26.87;18.93;;;;;;;;;;4950688;28;20231;-86
2022/11/22 00:40:11;;;;;;;24.77;18.50;;;;;;;;;;4940183;28;20230;-86
2022/11/22 00:42:36;;;;;;;25.63;18.87;;;;;;;;;;4982944;28;20217;-85
2022/11/22 00:45:05;;;;;;;28.27;19.90;;;;;;;;;;4959613;28;20289;-86
2022/11/22 00:47:32;;;;;;;27.93;19.00;;;;;;;;;;4954802;28;20235;-86
2022/11/22 00:49:58;;;;;;;29.43;20.20;;;;;;;;;;4956127;28;20226;-86
2022/11/22 00:52:23;;;;;;;29.50;19.40;;;;;;;;;;4965414;28;20222;-85
2022/11/22 00:54:51;;;;;;;25.20;18.83;;;;;;;;;;4953807;28;20222;-84
2022/11/22 00:57:17;;;;;;;28.07;19.80;;;;;;;;;;4953770;28;20245;-85
2022/11/22 00:59:42;;;;;;;27.70;19.23;;;;;;;;;;4984553;28;20210;-83
2022/11/22 01:02:10;;;;;;;25.00;19.40;;;;;;;;;;4962282;28;20237;-83
2022/11/22 01:04:38;;;;;;;28.70;20.30;;;;;;;;;;4988612;28;20238;-83
2022/11/22 01:07:06;;;;;;;28.50;19.73;;;;;;;;;;4958963;28;20330;-85
2022/11/22 01:09:34;;;;;;;31.47;20.83;;;;;;;;;;4973220;28;20226;-84
2022/11/22 01:12:01;;;;;;;31.07;20.87;;;;;;;;;;4966440;28;20285;-85
2022/11/22 01:14:29;;;;;;;25.17;18.50;;;;;;;;;;4971151;28;20573;-84
2022/11/22 01:16:54;;;;;;;24.70;18.87;;;;;;;;;;4992387;28;20226;-83
2022/11/22 01:19:20;;;;;;;26.37;19.33;;;;;;;;;;4977419;28;20211;-84
2022/11/22 01:21:48;;;;;;;27.70;19.73;;;;;;;;;;4989664;28;20240;-82
2022/11/22 01:24:13;;;;;;;28.23;20.47;;;;;;;;;;4990625;28;20230;-84
2022/11/22 01:26:41;;;;;;;25.60;19.83;;;;;;;;;;4968199;28;20259;-83
2022/11/22 01:29:07;;;;;;;26.20;19.40;;;;;;;;;;4981833;28;20235;-83
2022/11/22 01:31:34;;;;;;;28.57;20.53;;;;;;;;;;4966542;28;20222;-82
2022/11/22 01:34:00;;;;;;;27.07;20.17;;;;;;;;;;4966520;28;20235;-83
2022/11/22 01:36:29;;;;;;;26.13;20.13;;;;;;;;;;4968916;28;20229;-82
2022/11/22 01:38:54;;;;;;;27.13;21.03;;;;;;;;;;4984991;28;20238;-81
2022/11/22 01:41:20;;;;;;;29.80;19.97;;;;;;;;;;4983238;28;20289;-82
2022/11/22 01:43:46;;;;;;;29.13;18.93;;;;;;;;;;4970049;28;20234;-81
2022/11/22 01:46:36;;;;;;;28.87;22.27;;;;;;;;;;4967986;28;20751;-82
2022/11/22 01:49:12;;;;;;;24.87;18.93;;;;;;;;;;4999274;28;20289;-87
2022/11/22 01:51:44;;;;;;;26.30;19.17;;;;;;;;;;4985725;28;20218;-85
2022/11/22 01:54:16;;;;;;;25.87;19.13;;;;;;;;;;4966185;28;20231;-85
2022/11/22 01:56:47;;;;;;;29.07;19.80;;;;;;;;;;4937507;28;20231;-85
2022/11/22 01:59:16;;;;;;;24.53;20.27;;;;;;;;;;4960963;28;20280;-85
2022/11/22 02:01:46;;;;;;;27.30;19.93;;;;;;;;;;4967557;28;20249;-85
2022/11/22 02:04:13;;;;;;;25.03;18.90;;;;;;;;;;4941498;28;20301;-86
2022/11/22 02:06:45;;;;;;;26.23;18.87;;;;;;;;;;4955092;28;20844;-86
2022/11/22 02:09:11;;;;;;;28.37;20.53;;;;;;;;;;4972033;28;20226;-84
2022/11/22 02:11:39;;;;;;;28.67;20.27;;;;;;;;;;4949489;28;20281;-85
2022/11/22 02:14:06;;;;;;;26.20;19.57;;;;;;;;;;4934615;28;20720;-85
2022/11/22 02:16:33;;;;;;;24.50;19.33;;;;;;;;;;4973285;28;20695;-85
2022/11/22 02:18:59;;;;;;;26.20;19.47;;;;;;;;;;4972605;28;20237;-84
2022/11/22 02:21:29;;;;;;;25.10;19.23;;;;;;;;;;4973007;28;20333;-85
2022/11/22 02:23:59;;;;;;;24.93;19.57;;;;;;;;;;4973824;28;20642;-84
2022/11/22 02:26:26;;;;;;;25.80;18.63;;;;;;;;;;4964415;28;20234;-84
2022/11/22 02:28:56;;;;;;;24.33;19.03;;;;;;;;;;4960216;28;20230;-84
2022/11/22 02:31:42;;;;;;;26.07;19.10;;;;;;;;;;4976517;28;20240;-84
2022/11/22 02:34:09;;;;;;;25.60;19.50;;;;;;;;;;4981137;28;20236;-84
2022/11/22 02:36:42;;;;;;;29.23;19.07;;;;;;;;;;4970896;28;20239;-84
2022/11/22 02:39:10;;;;;;;26.00;19.07;;;;;;;;;;4974362;28;20233;-86
2022/11/22 02:41:36;;;;;;;25.07;19.50;;;;;;;;;;4956433;28;20226;-83
2022/11/22 02:44:06;;;;;;;26.73;19.50;;;;;;;;;;4971238;28;20233;-85
2022/11/22 02:46:31;;;;;;;28.47;19.50;;;;;;;;;;4973911;28;20237;-86
2022/11/22 02:48:57;;;;;;;25.87;18.27;;;;;;;;;;4976469;28;20230;-85
2022/11/22 02:51:23;;;;;;;28.00;19.63;;;;;;;;;;4962244;28;20877;-84
2022/11/22 02:53:52;;;;;;;23.07;17.70;;;;;;;;;;4947453;28;20250;-86
2022/11/22 02:56:20;;;;;;;23.93;18.60;;;;;;;;;;4937521;28;20301;-84
2022/11/22 02:58:45;;;;;;;25.27;18.07;;;;;;;;;;4956607;28;20878;-84
2022/11/22 03:01:13;;;;;;;23.77;18.73;;;;;;;;;;4944604;28;20244;-84
2022/11/22 03:03:41;;;;;;;23.77;18.17;;;;;;;;;;4970850;28;20277;-85
2022/11/22 03:06:07;;;;;;;21.97;16.83;;;;;;;;;;4957687;28;20330;-85
2022/11/22 03:08:32;;;;;;;24.83;17.60;;;;;;;;;;4976288;28;20582;-85
2022/11/22 03:10:58;;;;;;;21.30;17.53;;;;;;;;;;4984484;28;20234;-80
2022/11/22 03:13:26;;;;;;;24.10;18.97;;;;;;;;;;4973009;28;20597;-83
2022/11/22 03:15:52;;;;;;;22.10;17.37;;;;;;;;;;4988017;28;20252;-83
2022/11/22 03:18:18;;;;;;;23.67;17.90;;;;;;;;;;4975043;28;20227;-86
2022/11/22 03:20:45;;;;;;;22.50;17.37;;;;;;;;;;4974479;28;20241;-86
2022/11/22 03:23:11;;;;;;;26.43;17.53;;;;;;;;;;4956974;28;20238;-86
2022/11/22 03:25:39;;;;;;;26.67;19.33;;;;;;;;;;4976085;28;20325;-83
2022/11/22 03:28:06;;;;;;;24.33;17.97;;;;;;;;;;4959881;28;20222;-84
2022/11/22 03:30:32;;;;;;;26.00;18.80;;;;;;;;;;4969092;28;20230;-83
2022/11/22 03:32:57;;;;;;;25.47;18.93;;;;;;;;;;4953066;28;20225;-85
2022/11/22 03:35:23;;;;;;;25.40;19.37;;;;;;;;;;4967221;28;20299;-85
2022/11/22 03:37:48;;;;;;;26.37;18.97;;;;;;;;;;4968437;28;20230;-83
2022/11/22 03:40:14;;;;;;;24.10;18.07;;;;;;;;;;4974747;28;20229;-82
2022/11/22 03:42:54;;;;;;;24.83;17.23;;;;;;;;;;4955453;28;20219;-83
2022/11/22 03:45:25;;;;;;;22.37;17.70;;;;;;;;;;4963878;28;20234;-84
2022/11/22 03:47:50;;;;;;;23.90;18.57;;;;;;;;;;4952904;28;20223;-86
2022/11/22 03:50:16;;;;;;;27.73;18.57;;;;;;;;;;4948286;28;20235;-84
2022/11/22 03:52:41;;;;;;;26.17;18.33;;;;;;;;;;4951882;28;20240;-83
2022/11/22 03:55:09;;;;;;;25.53;18.60;;;;;;;;;;4949516;28;20223;-85
2022/11/22 03:57:35;;;;;;;21.43;16.47;;;;;;;;;;4951368;28;20227;-84
2022/11/22 04:00:00;;;;;;;27.53;18.97;;;;;;;;;;4957407;28;20237;-85
2022/11/22 04:02:28;;;;;;;22.50;17.67;;;;;;;;;;4977844;28;20223;-81
2022/11/22 04:04:58;;;;;;;25.30;17.53;;;;;;;;;;4971519;28;20269;-83
2022/11/22 04:07:26;;;;;;;21.60;17.07;;;;;;;;;;4985408;28;20253;-84
2022/11/22 04:09:54;;;;;;;22.73;18.03;;;;;;;;;;4944413;28;20769;-85
2022/11/22 04:12:19;;;;;;;22.30;16.53;;;;;;;;;;4957463;28;20249;-82
2022/11/22 04:17:50;;;;;;;20.90;16.60;;;;;;;;;;4951762;28;20234;-84
2022/11/22 04:23:04;;;;;;;18.17;15.57;;;;;;;;;;4955271;28;20227;-86
2022/11/22 04:25:33;;;;;;;18.40;16.40;;;;;;;;;;4939570;29;20305;-83
2022/11/22 04:28:01;;;;;;;22.57;17.00;;;;;;;;;;4960559;28;20330;-83
2022/11/22 04:33:11;;;;;;;21.80;17.27;;;;;;;;;;4938883;28;20225;-85
2022/11/22 04:35:37;;;;;;;18.30;16.00;;;;;;;;;;4938912;28;20215;-85
2022/11/22 04:38:05;;;;;;;18.83;16.60;;;;;;;;;;4953135;28;20601;-84
2022/11/22 04:40:31;;;;;;;19.23;16.50;;;;;;;;;;4966549;28;20222;-84
2022/11/22 04:45:41;;;;;;;20.13;16.63;;;;;;;;;;4938889;28;20231;-84
2022/11/22 04:48:07;;;;;;;17.60;15.33;;;;;;;;;;4934739;28;20703;-82
2022/11/22 04:53:22;;;;;;;18.20;15.03;;;;;;;;;;4981988;23;20340;-76
2022/11/22 04:55:52;;;;;;;20.73;16.70;;;;;;;;;;4981105;28;20292;-77
2022/11/22 04:58:25;;;;;;;18.63;14.87;;;;;;;;;;4962959;28;20245;-78
2022/11/22 05:00:53;;;;;;;22.67;17.03;;;;;;;;;;4979104;28;21073;-75
2022/11/22 05:03:19;;;;;;;18.07;16.07;;;;;;;;;;4962969;28;20226;-76
2022/11/22 05:05:44;;;;;;;20.57;17.37;;;;;;;;;;4979721;28;20230;-76
2022/11/22 05:08:13;;;;;;;20.57;16.30;;;;;;;;;;4975196;28;20230;-75
2022/11/22 05:10:57;;;;;;;18.93;15.83;;;;;;;;;;4959878;28;20281;-76
2022/11/22 05:13:35;;;;;;;19.20;16.37;;;;;;;;;;4957762;28;20236;-75
2022/11/22 05:16:01;;;;;;;20.90;16.13;;;;;;;;;;4975910;28;20226;-76
2022/11/22 05:18:29;;;;;;;20.17;16.10;;;;;;;;;;4975293;28;20233;-76
2022/11/22 05:20:59;;;;;;;18.70;16.70;;;;;;;;;;4958416;28;20718;-75
2022/11/22 05:26:11;;;;;;;19.13;15.33;;;;;;;;;;4969419;28;20241;-76
2022/11/22 05:28:44;;;;;;;21.37;17.43;;;;;;;;;;4972741;28;20976;-75
2022/11/22 05:31:11;;;;;;;19.63;16.53;;;;;;;;;;4953535;28;20720;-77
2022/11/22 05:33:38;;;;;;;19.53;16.63;;;;;;;;;;4954511;28;20222;-76
2022/11/22 05:36:07;;;;;;;20.70;17.27;;;;;;;;;;4956052;28;20342;-77
2022/11/22 05:38:36;;;;;;;20.27;16.10;;;;;;;;;;4958747;28;20229;-76
2022/11/22 05:41:03;;;;;;;19.07;16.57;;;;;;;;;;4976270;28;20226;-77
2022/11/22 05:43:31;;;;;;;20.13;16.23;;;;;;;;;;4943553;28;20230;-76
2022/11/22 05:46:09;;;;;;;18.40;16.17;;;;;;;;;;4942653;28;20610;-77
2022/11/22 05:48:39;;;;;;;19.77;16.40;;;;;;;;;;4958130;28;20222;-75
2022/11/22 05:51:06;;;;;;;19.40;16.63;;;;;;;;;;4959360;28;20226;-75
2022/11/22 05:53:34;;;;;;;23.23;17.43;;;;;;;;;;4962599;28;20228;-76
2022/11/22 05:56:05;;;;;;;18.73;16.67;;;;;;;;;;4977091;28;20220;-76
2022/11/22 05:58:30;;;;;;;19.60;16.40;;;;;;;;;;4963279;28;20237;-75
2022/11/22 06:01:06;;;;;;;26.43;17.07;;;;;;;;;;4968333;28;20230;-78
2022/11/22 06:03:34;;;;;;;18.20;15.90;;;;;;;;;;4983400;28;20921;-76
2022/11/22 06:06:02;;;;;;;20.53;16.90;;;;;;;;;;4947308;28;20282;-76
2022/11/22 06:08:34;;;;;;;20.40;17.60;;;;;;;;;;4947942;28;20226;-75
2022/11/22 06:11:12;;;;;;;19.13;16.60;;;;;;;;;;4968631;28;20236;-75
2022/11/22 06:13:39;;;;;;;19.77;17.00;;;;;;;;;;4963688;28;20225;-78
2022/11/22 06:16:05;;;;;;;18.37;15.90;;;;;;;;;;4962465;28;20402;-76
2022/11/22 06:18:31;;;;;;;20.30;17.67;;;;;;;;;;4962328;28;20249;-77
2022/11/22 06:21:00;;;;;;;19.20;16.90;;;;;;;;;;4960869;28;20244;-76
2022/11/22 06:23:25;;;;;;;21.50;18.63;;;;;;;;;;5013050;23;20225;-79
2022/11/22 06:26:01;;;;;;;19.07;16.87;;;;;;;;;;5020586;28;20310;-80
2022/11/22 06:28:31;;;;;;;19.00;16.90;;;;;;;;;;4976645;28;20244;-78
2022/11/22 06:31:14;;;;;;;19.20;17.20;;;;;;;;;;4975027;28;20228;-79
2022/11/22 06:33:48;;;;;;;19.27;16.17;;;;;;;;;;4988256;28;20233;-78
2022/11/22 06:36:21;;;;;;;19.17;16.63;;;;;;;;;;4993748;28;20221;-78
2022/11/22 06:38:55;;;;;;;19.33;17.23;;;;;;;;;;4986692;28;20236;-79
2022/11/22 06:41:22;;;;;;;18.10;16.10;;;;;;;;;;4989644;28;20253;-79
2022/11/22 06:43:49;;;;;;;20.07;17.37;;;;;;;;;;4972080;28;20229;-78
2022/11/22 06:46:15;;;;;;;19.17;17.00;;;;;;;;;;4988333;28;20324;-80
2022/11/22 06:48:41;;;;;;;20.10;17.80;;;;;;;;;;4957279;28;20234;-80
2022/11/22 06:51:18;;;;;;;19.17;17.20;;;;;;;;;;4969936;28;20264;-77
2022/11/22 06:53:43;;;;;;;17.63;15.10;;;;;;;;;;5000982;28;20232;-78
2022/11/22 06:56:11;;;;;;;20.37;16.60;;;;;;;;;;4954082;28;20229;-78
2022/11/22 06:58:36;;;;;;;20.20;16.70;;;;;;;;;;4989193;28;20910;-79
2022/11/22 07:01:18;;;;;;;18.13;16.10;;;;;;;;;;4953917;28;21008;-80
2022/11/22 07:03:44;;;;;;;19.37;16.43;;;;;;;;;;5002730;28;20232;-79
2022/11/22 07:06:12;;;;;;;19.37;17.20;;;;;;;;;;4984545;28;20303;-78
2022/11/22 07:08:38;;;;;;;20.50;16.77;;;;;;;;;;4967039;28;20225;-78
2022/11/22 07:11:04;;;;;;;20.57;17.40;;;;;;;;;;4974038;28;20232;-77
2022/11/22 07:13:30;;;;;;;17.27;15.57;;;;;;;;;;4986220;28;20229;-79
2022/11/22 07:16:12;;;;;;;19.27;16.73;;;;;;;;;;4951207;28;20248;-78
2022/11/22 07:18:38;;;;;;;19.43;17.33;;;;;;;;;;4974415;28;20288;-77
2022/11/22 07:21:05;;;;;;;17.77;15.00;;;;;;;;;;4987014;28;20237;-78
2022/11/22 07:23:31;;;;;;;19.53;17.07;;;;;;;;;;4990889;28;20252;-78
2022/11/22 07:25:57;;;;;;;18.77;16.80;;;;;;;;;;4984499;28;20221;-76
2022/11/22 07:28:25;;;;;;;19.77;17.37;;;;;;;;;;4981273;28;20240;-76
2022/11/22 07:30:57;;;;;;;19.07;16.37;;;;;;;;;;5007506;28;20237;-79
2022/11/22 07:33:25;;;;;;;20.60;17.67;;;;;;;;;;4995454;28;20243;-78
2022/11/22 07:35:55;;;;;;;19.63;17.53;;;;;;;;;;4986818;28;20687;-77
2022/11/22 07:38:23;;;;;;;20.30;17.57;;;;;;;;;;4969649;28;20226;-79
2022/11/22 07:40:48;;;;;;;19.40;16.97;;;;;;;;;;4984621;28;20223;-78
2022/11/22 07:43:39;;;;;;;18.27;16.40;;;;;;;;;;4985609;28;20238;-77
2022/11/22 07:46:07;;;;;;;18.10;16.27;;;;;;;;;;4989508;28;20237;-79
2022/11/22 07:48:37;;;;;;;22.63;17.97;;;;;;;;;;4987793;28;20238;-77
2022/11/22 07:51:06;;;;;;;19.70;17.60;;;;;;;;;;4992234;28;20233;-78
2022/11/22 07:53:36;;;;;;;21.27;16.97;;;;;;;;;;4987919;28;20560;-79
2022/11/22 07:56:05;;;;;;;19.03;17.07;;;;;;;;;;4991212;28;20308;-80
2022/11/22 07:58:33;;;;;;;20.73;17.60;;;;;;;;;;4962819;28;20230;-78
2022/11/22 08:01:07;;;;;;;20.17;17.83;;;;;;;;;;4966320;28;20724;-78
2022/11/22 08:03:33;;;;;;;20.00;17.23;;;;;;;;;;4952513;28;20433;-79
2022/11/22 08:05:59;;;;;;;19.27;17.07;;;;;;;;;;5004189;28;20699;-80
2022/11/22 08:08:27;;;;;;;19.20;17.00;;;;;;;;;;4954202;28;20310;-78
2022/11/22 08:11:02;;;;;;;19.80;17.63;;;;;;;;;;4989948;28;20226;-77
2022/11/22 08:13:32;;;;;;;19.63;17.63;;;;;;;;;;5003767;28;20232;-77
2022/11/22 08:16:09;;;;;;;18.53;16.47;;;;;;;;;;4986079;28;20256;-77
2022/11/22 08:18:35;;;;;;;18.83;16.83;;;;;;;;;;4965263;28;20228;-79
2022/11/22 08:21:08;;;;;;;19.83;17.70;;;;;;;;;;4978475;28;20221;-78
2022/11/22 08:23:34;;;;;;;19.27;17.27;;;;;;;;;;4984121;28;20655;-78
2022/11/22 08:26:00;;;;;;;23.00;18.33;;;;;;;;;;4988145;28;20217;-76
2022/11/22 08:28:31;;;;;;;18.47;16.50;;;;;;;;;;4971315;28;20232;-78
2022/11/22 08:31:05;;;;;;;19.60;17.50;;;;;;;;;;4972457;28;20268;-76
2022/11/22 08:33:30;;;;;;;19.97;17.87;;;;;;;;;;4974420;28;20237;-79
2022/11/22 08:36:05;;;;;;;19.87;17.87;;;;;;;;;;4991099;28;21002;-79
2022/11/22 08:38:33;;;;;;;20.17;17.53;;;;;;;;;;4977522;28;20245;-77
2022/11/22 08:41:05;;;;;;;20.27;18.03;;;;;;;;;;4991336;28;20222;-78
2022/11/22 08:43:31;;;;;;;19.63;17.53;;;;;;;;;;4990454;28;20230;-77
2022/11/22 08:46:00;;;;;;;19.47;17.37;;;;;;;;;;5007948;28;20229;-78
2022/11/22 08:48:30;;;;;;;19.63;17.53;;;;;;;;;;4959997;28;20217;-78
2022/11/22 08:51:13;;;;;;;19.17;17.10;;;;;;;;;;4981909;28;20226;-78
2022/11/22 08:53:42;;;;;;;19.57;17.43;;;;;;;;;;4997048;28;20225;-79
2022/11/22 08:56:11;;;;;;;20.57;17.50;;;;;;;;;;4990237;28;20624;-77
2022/11/22 08:58:37;;;;;;;19.83;17.73;;;;;;;;;;5013362;28;20205;-77
2022/11/22 09:01:15;;;;;;;20.53;17.47;;;;;;;;;;4979881;28;20638;-78
2022/11/22 09:03:41;;;;;;;19.00;16.40;;;;;;;;;;4980487;28;20239;-77
2022/11/22 09:06:11;;;;;;;18.93;17.03;;;;;;;;;;4964285;28;20254;-78
2022/11/22 09:08:44;;;;;;;18.70;16.70;;;;;;;;;;5003310;28;20231;-77
2022/11/22 09:11:11;;;;;;;19.43;17.07;;;;;;;;;;5015090;28;20222;-77
2022/11/22 09:13:42;;;;;;;18.67;16.60;;;;;;;;;;4996268;28;20225;-76
2022/11/22 09:16:15;;;;;;;19.50;17.47;;;;;;;;;;4987623;28;20351;-79
2022/11/22 09:18:41;;;;;;;18.90;16.67;;;;;;;;;;5004648;28;20319;-75
2022/11/22 09:22:06;;;;;;;19.43;17.23;;;;;;;;;;4989082;28;20230;-77
2022/11/22 09:24:32;;;;;;;18.90;16.90;;;;;;;;;;4990276;28;20654;-76
2022/11/22 09:27:00;;;;;;;19.30;16.67;;;;;;;;;;4992980;28;20263;-78
2022/11/22 09:29:57;;;;;;;19.20;17.23;;;;;;;;;;4983422;28;20358;-78
2022/11/22 09:32:25;;;;;;;18.53;16.63;;;;;;;;;;4983899;28;20234;-79
2022/11/22 09:34:50;;;;;;;18.70;16.70;;;;;;;;;;4990066;28;20236;-76
2022/11/22 09:37:18;;;;;;;20.27;17.67;;;;;;;;;;5010251;23;22097;-75
2022/11/22 09:39:49;;;;;;;20.40;18.23;;;;;;;;;;4962634;28;20249;-76
2022/11/22 09:42:35;;;;;;;18.10;16.20;;;;;;;;;;4958557;28;20230;-76
2022/11/22 09:45:33;;;;;;;19.30;17.40;;;;;;;;;;4974721;28;20244;-76
2022/11/22 09:48:12;;;;;;;18.23;16.33;;;;;;;;;;4977738;28;20242;-75
2022/11/22 09:50:55;;;;;;;19.07;17.17;;;;;;;;;;4975425;28;20231;-76
2022/11/22 09:53:31;;;;;;;18.23;16.33;;;;;;;;;;4943592;28;20243;-76
2022/11/22 09:55:58;;;;;;;18.30;16.50;;;;;;;;;;4956446;28;20220;-75
2022/11/22 09:58:32;;;;;;;18.53;16.30;;;;;;;;;;4938808;28;20232;-75
2022/11/22 10:01:26;;;;;;;17.87;15.97;;;;;;;;;;4955107;28;20229;-77
2022/11/22 10:03:56;;;;;;;20.67;16.40;;;;;;;;;;4960290;28;20233;-74
2022/11/22 10:06:28;;;;;;;18.60;16.60;;;;;;;;;;4965612;28;20234;-74
2022/11/22 10:09:02;;;;;;;19.03;16.33;;;;;;;;;;4960039;28;20244;-77
2022/11/22 10:11:56;;;;;;;17.20;15.50;;;;;;;;;;4966063;28;20225;-76
2022/11/22 10:14:44;;;;;;;17.03;15.23;;;;;;;;;;4964580;28;20230;-80
2022/11/22 10:17:46;;;;;;;16.93;15.17;;;;;;;;;;4957629;28;20225;-80
2022/11/22 10:20:16;;;;;;;16.60;14.90;;;;;;;;;;4974991;28;20225;-76
2022/11/22 10:22:42;;;;;;;16.63;14.97;;;;;;;;;;4945342;28;20225;-76
2022/11/22 10:25:19;;;;;;;16.87;15.13;;;;;;;;;;4946719;28;20645;-77
2022/11/22 10:27:50;;;;;;;16.23;14.63;;;;;;;;;;4958901;28;20238;-76
2022/11/22 10:30:18;;;;;;;15.80;14.30;;;;;;;;;;4947030;28;20217;-76
2022/11/22 10:33:08;;;;;;;16.73;14.93;;;;;;;;;;4962263;28;20226;-75
2022/11/22 10:35:49;;;;;;;17.23;15.13;;;;;;;;;;4985927;28;20234;-75
2022/11/22 10:38:54;;;;;;;17.87;16.07;;;;;;;;;;4975120;28;20240;-75
2022/11/22 10:41:44;;;;;;;16.93;15.13;;;;;;;;;;4952841;28;20241;-75
2022/11/22 10:44:52;;;;;;;16.60;14.87;;;;;;;;;;4953294;28;20226;-76
2022/11/22 10:47:32;;;;;;;16.47;14.80;;;;;;;;;;4959468;28;20237;-76
2022/11/22 10:50:15;;;;;;;15.30;13.80;;;;;;;;;;4979192;28;20226;-76
2022/11/22 10:52:57;;;;;;;15.30;13.63;;;;;;;;;;4947459;28;20231;-76
2022/11/22 10:55:59;;;;;;;18.57;14.47;;;;;;;;;;4957643;28;21669;-77
2022/11/22 10:58:42;;;;;;;17.67;14.10;;;;;;;;;;4951048;28;20271;-76
2022/11/22 11:01:17;;;;;;;16.70;14.97;;;;;;;;;;4983824;28;20238;-76
2022/11/22 11:03:48;;;;;;;15.47;13.87;;;;;;;;;;4973949;28;20293;-76
2022/11/22 11:06:23;;;;;;;16.90;14.23;;;;;;;;;;4942968;28;20712;-77
2022/11/22 11:08:53;;;;;;;16.43;14.73;;;;;;;;;;4943269;28;20230;-76
2022/11/22 11:11:20;;;;;;;15.03;13.57;;;;;;;;;;4969288;28;20246;-77
2022/11/22 11:13:51;;;;;;;19.10;15.27;;;;;;;;;;4953624;28;20723;-76
2022/11/22 11:16:24;;;;;;;16.07;14.47;;;;;;;;;;4968241;28;20224;-77
2022/11/22 11:18:52;;;;;;;16.33;14.70;;;;;;;;;;4940058;28;20257;-77
2022/11/22 11:21:18;;;;;;;16.60;14.90;;;;;;;;;;4972433;28;20225;-77
2022/11/22 11:23:44;;;;;;;15.67;14.03;;;;;;;;;;4944395;28;20232;-77
2022/11/22 11:26:25;;;;;;;16.33;14.20;;;;;;;;;;4942188;28;20222;-75
2022/11/22 11:29:16;;;;;;;17.60;14.13;;;;;;;;;;4972751;28;20218;-77
2022/11/22 11:31:42;;;;;;;15.63;13.57;;;;;;;;;;4974845;28;20285;-77
2022/11/22 11:34:20;;;;;;;16.23;14.63;;;;;;;;;;4983783;28;21211;-77
2022/11/22 11:36:46;;;;;;;18.00;14.60;;;;;;;;;;4986264;28;20233;-79
2022/11/22 11:39:26;;;;;;;15.80;14.33;;;;;;;;;;4949012;28;20309;-78
2022/11/22 11:41:52;;;;;;;15.87;14.27;;;;;;;;;;4960735;28;20697;-77
2022/11/22 11:44:34;;;;;;;16.03;14.53;;;;;;;;;;4948225;28;20265;-80
2022/11/22 11:47:01;;;;;;;15.37;13.73;;;;;;;;;;4978680;28;20234;-79
2022/11/22 11:49:31;;;;;;;16.80;15.10;;;;;;;;;;4972780;28;20278;-79
2022/11/22 11:51:58;;;;;;;16.03;14.50;;;;;;;;;;4973295;28;20250;-80
2022/11/22 11:54:27;;;;;;;16.53;14.73;;;;;;;;;;4945320;28;20246;-76
2022/11/22 11:56:57;;;;;;;16.37;14.07;;;;;;;;;;4972604;28;20230;-78
2022/11/22 11:59:43;;;;;;;16.43;14.70;;;;;;;;;;4970375;28;20214;-78
2022/11/22 12:02:24;;;;;;;15.10;13.50;;;;;;;;;;4961503;28;20237;-78
2022/11/22 12:05:06;;;;;;;15.13;13.60;;;;;;;;;;4985542;28;20222;-78
2022/11/22 12:07:35;;;;;;;15.83;14.30;;;;;;;;;;4977344;28;20396;-78
2022/11/22 12:10:04;;;;;;;15.13;13.57;;;;;;;;;;4974188;28;20218;-77
2022/11/22 12:12:42;;;;;;;15.13;13.73;;;;;;;;;;4947604;28;20228;-78
2022/11/22 12:15:28;;;;;;;15.80;14.20;;;;;;;;;;4982787;28;20234;-78
2022/11/22 12:18:18;;;;;;;14.63;13.23;;;;;;;;;;4962283;28;20269;-79
2022/11/22 12:21:27;;;;;;;14.43;13.03;;;;;;;;;;4991008;28;21018;-79
2022/11/22 12:23:58;;;;;;;15.73;14.23;;;;;;;;;;4986454;28;20236;-78
2022/11/22 12:26:25;;;;;;;15.03;13.40;;;;;;;;;;4990534;28;20230;-76
2022/11/22 12:28:51;;;;;;;14.73;13.23;;;;;;;;;;4950408;28;20230;-77
2022/11/22 12:31:22;;;;;;;15.10;13.70;;;;;;;;;;4985125;28;20237;-79
2022/11/22 12:33:56;;;;;;;14.40;13.07;;;;;;;;;;5008220;28;20230;-77
2022/11/22 12:36:39;;;;;;;17.07;13.97;;;;;;;;;;5003249;28;20273;-77
2022/11/22 12:39:09;;;;;;;15.20;13.67;;;;;;;;;;4986586;28;20226;-78
2022/11/22 12:41:36;;;;;;;14.07;12.77;;;;;;;;;;4945786;28;20218;-78
2022/11/22 12:44:03;;;;;;;15.50;14.00;;;;;;;;;;4978279;28;20257;-78
2022/11/22 12:46:40;;;;;;;15.53;12.80;;;;;;;;;;4962189;28;20364;-78
2022/11/22 12:49:18;;;;;;;13.37;12.03;;;;;;;;;;4955020;28;20268;-79
2022/11/22 12:51:43;;;;;;;13.97;12.53;;;;;;;;;;4962237;28;20317;-77
2022/11/22 12:54:15;;;;;;;13.80;12.60;;;;;;;;;;4995301;28;20248;-78
2022/11/22 12:57:20;;;;;;;13.97;12.33;;;;;;;;;;4982529;28;20258;-79
2022/11/22 13:00:12;;;;;;;13.27;12.07;;;;;;;;;;4989981;28;20225;-79
2022/11/22 13:02:52;;;;;;;13.47;11.30;;;;;;;;;;5013396;28;20308;-77
2022/11/22 13:05:44;;;;;;;13.60;12.30;;;;;;;;;;5002260;28;20218;-79
2022/11/22 13:08:44;;;;;;;13.47;12.17;;;;;;;;;;4975154;28;20222;-77
2022/11/22 13:11:15;;;;;;;13.93;12.47;;;;;;;;;;4985099;28;20217;-78
2022/11/22 13:13:50;;;;;;;14.10;12.77;;;;;;;;;;4950060;28;20226;-79
2022/11/22 13:16:16;;;;;;;13.07;11.83;;;;;;;;;;4939955;28;20218;-78
2022/11/22 13:18:52;;;;;;;15.37;13.43;;;;;;;;;;4941762;28;20617;-78
2022/11/22 13:21:18;;;;;;;13.57;12.37;;;;;;;;;;4986050;28;20224;-79
2022/11/22 13:24:02;;;;;;;13.63;12.33;;;;;;;;;;4986152;28;20296;-78
2022/11/22 13:26:36;;;;;;;14.70;12.40;;;;;;;;;;4963313;28;20325;-77
2022/11/22 13:29:08;;;;;;;14.77;13.20;;;;;;;;;;4975902;28;20232;-76
2022/11/22 13:31:34;;;;;;;14.03;12.60;;;;;;;;;;4959745;28;20218;-76
2022/11/22 13:34:03;;;;;;;13.73;12.43;;;;;;;;;;4945707;28;20240;-78
2022/11/22 13:36:31;;;;;;;14.63;13.33;;;;;;;;;;4933249;28;20218;-79
2022/11/22 13:39:02;;;;;;;14.07;12.67;;;;;;;;;;4986765;28;20273;-79
2022/11/22 13:41:33;;;;;;;14.43;12.60;;;;;;;;;;4969877;28;20352;-77
2022/11/22 13:44:22;;;;;;;14.60;13.20;;;;;;;;;;4979280;28;20761;-78
2022/11/22 13:46:48;;;;;;;14.97;13.57;;;;;;;;;;4994847;28;20585;-78
2022/11/22 13:49:32;;;;;;;14.53;13.03;;;;;;;;;;4979206;28;20221;-75
2022/11/22 13:51:59;;;;;;;14.87;13.47;;;;;;;;;;4955370;28;20230;-77
2022/11/22 13:54:37;;;;;;;14.23;12.87;;;;;;;;;;4968655;28;20225;-76
2022/11/22 13:57:23;;;;;;;14.40;13.10;;;;;;;;;;4965323;28;20355;-78
2022/11/22 14:00:30;;;;;;;14.13;12.73;;;;;;;;;;5010976;28;20249;-76
2022/11/22 14:03:14;;;;;;;13.43;12.03;;;;;;;;;;4942347;28;20253;-73
2022/11/22 14:05:40;;;;;;;14.53;13.07;;;;;;;;;;4970607;28;20234;-74
2022/11/22 14:08:26;;;;;;;14.30;12.67;;;;;;;;;;4938087;28;20235;-75
2022/11/22 14:10:51;;;;;;;14.20;12.87;;;;;;;;;;4977777;28;20224;-75
2022/11/22 14:13:25;;;;;;;14.67;13.23;;;;;;;;;;4962559;28;20669;-77
2022/11/22 14:16:07;;;;;;;15.23;13.67;;;;;;;;;;4985731;28;20222;-78
2022/11/22 14:18:55;;;;;;;14.10;12.77;;;;;;;;;;4975857;28;20229;-78
2022/11/22 14:22:01;;;;;;;14.90;13.50;;;;;;;;;;4969648;28;20222;-76
2022/11/22 14:24:41;;;;;;;15.30;13.80;;;;;;;;;;4976336;28;20243;-76
2022/11/22 14:27:40;;;;;;;14.77;13.37;;;;;;;;;;4969232;28;20230;-80
2022/11/22 14:30:17;;;;;;;14.90;13.40;;;;;;;;;;4952842;28;20249;-78
2022/11/22 14:33:12;;;;;;;17.77;14.60;;;;;;;;;;4990501;28;20280;-78
2022/11/22 14:35:58;;;;;;;16.13;13.47;;;;;;;;;;4966502;28;20242;-82
2022/11/22 14:38:24;;;;;;;15.43;13.83;;;;;;;;;;4950416;28;20805;-78
2022/11/22 14:40:52;;;;;;;15.13;13.57;;;;;;;;;;4955273;28;20226;-77
2022/11/22 14:43:17;;;;;;;16.23;14.57;;;;;;;;;;4953523;28;20218;-77
2022/11/22 14:45:51;;;;;;;15.63;14.13;;;;;;;;;;4958052;28;20607;-80
2022/11/22 14:48:17;;;;;;;15.60;14.00;;;;;;;;;;4967240;28;20258;-79
2022/11/22 14:50:47;;;;;;;15.67;14.10;;;;;;;;;;5018878;28;20226;-82
2022/11/22 14:53:28;;;;;;;16.07;14.03;;;;;;;;;;4968645;28;20233;-78
2022/11/22 14:56:06;;;;;;;16.60;14.87;;;;;;;;;;5004739;28;20249;-76
2022/11/22 14:58:38;;;;;;;17.37;15.57;;;;;;;;;;4956062;28;20218;-78
2022/11/22 15:01:22;;;;;;;21.97;16.03;;;;;;;;;;4971632;28;20286;-80